sensor_id;sensor_type;location;lat;lon;timestamp;P1;durP1;ratioP1;P2;durP2;ratioP2
22737;SDS011;11536;50.860;4.286;2023-08-06T00:00:23;4.28;;;0.93;;
22737;SDS011;11536;50.860;4.286;2023-08-06T00:02:49;2.17;;;0.80;;
22737;SDS011;11536;50.860;4.286;2023-08-06T00:05:15;2.40;;;0.75;;
22737;SDS011;11536;50.860;4.286;2023-08-06T00:07:46;2.92;;;0.80;;
22737;SDS011;11536;50.860;4.286;2023-08-06T00:10:13;3.13;;;0.80;;
22737;SDS011;11536;50.860;4.286;2023-08-06T00:12:38;4.10;;;0.80;;
22737;SDS011;11536;50.860;4.286;2023-08-06T00:15:04;3.60;;;0.90;;
22737;SDS011;11536;50.860;4.286;2023-08-06T00:17:30;2.40;;;0.90;;
22737;SDS011;11536;50.860;4.286;2023-08-06T00:19:56;4.07;;;0.90;;
22737;SDS011;11536;50.860;4.286;2023-08-06T00:22:21;3.13;;;1.15;;
22737;SDS011;11536;50.860;4.286;2023-08-06T00:24:47;3.38;;;1.10;;
22737;SDS011;11536;50.860;4.286;2023-08-06T00:27:13;3.85;;;1.00;;
22737;SDS011;11536;50.860;4.286;2023-08-06T00:29:38;3.70;;;1.10;;
22737;SDS011;11536;50.860;4.286;2023-08-06T00:32:04;2.28;;;1.13;;
22737;SDS011;11536;50.860;4.286;2023-08-06T00:34:29;4.25;;;1.25;;
22737;SDS011;11536;50.860;4.286;2023-08-06T00:36:55;4.47;;;1.45;;
22737;SDS011;11536;50.860;4.286;2023-08-06T00:39:21;4.95;;;1.73;;
22737;SDS011;11536;50.860;4.286;2023-08-06T00:41:46;6.07;;;1.80;;
22737;SDS011;11536;50.860;4.286;2023-08-06T00:44:12;4.10;;;1.58;;
22737;SDS011;11536;50.860;4.286;2023-08-06T00:46:37;4.65;;;1.73;;
22737;SDS011;11536;50.860;4.286;2023-08-06T00:49:04;6.35;;;2.03;;
22737;SDS011;11536;50.860;4.286;2023-08-06T00:51:30;4.13;;;1.40;;
22737;SDS011;11536;50.860;4.286;2023-08-06T00:53:56;7.47;;;2.17;;
22737;SDS011;11536;50.860;4.286;2023-08-06T00:56:22;7.22;;;2.25;;
22737;SDS011;11536;50.860;4.286;2023-08-06T00:58:49;5.88;;;2.20;;
22737;SDS011;11536;50.860;4.286;2023-08-06T01:01:15;5.07;;;2.10;;
22737;SDS011;11536;50.860;4.286;2023-08-06T01:03:40;6.05;;;2.30;;
22737;SDS011;11536;50.860;4.286;2023-08-06T01:06:06;5.47;;;2.00;;
22737;SDS011;11536;50.860;4.286;2023-08-06T01:11:48;6.88;;;2.45;;
22737;SDS011;11536;50.860;4.286;2023-08-06T01:14:36;5.38;;;2.50;;
22737;SDS011;11536;50.860;4.286;2023-08-06T01:17:11;7.28;;;2.30;;
22737;SDS011;11536;50.860;4.286;2023-08-06T01:19:38;7.90;;;2.38;;
22737;SDS011;11536;50.860;4.286;2023-08-06T01:22:03;7.32;;;2.53;;
22737;SDS011;11536;50.860;4.286;2023-08-06T01:24:29;4.60;;;2.30;;
22737;SDS011;11536;50.860;4.286;2023-08-06T01:26:59;6.07;;;2.45;;
22737;SDS011;11536;50.860;4.286;2023-08-06T01:29:56;5.95;;;2.40;;
22737;SDS011;11536;50.860;4.286;2023-08-06T01:32:29;6.35;;;2.78;;
22737;SDS011;11536;50.860;4.286;2023-08-06T01:34:56;6.38;;;2.63;;
22737;SDS011;11536;50.860;4.286;2023-08-06T01:37:25;6.03;;;2.28;;
22737;SDS011;11536;50.860;4.286;2023-08-06T01:39:51;7.70;;;2.65;;
22737;SDS011;11536;50.860;4.286;2023-08-06T01:42:17;7.28;;;2.35;;
22737;SDS011;11536;50.860;4.286;2023-08-06T01:44:42;5.80;;;2.10;;
22737;SDS011;11536;50.860;4.286;2023-08-06T01:47:08;4.97;;;1.90;;
22737;SDS011;11536;50.860;4.286;2023-08-06T01:49:34;8.70;;;2.15;;
22737;SDS011;11536;50.860;4.286;2023-08-06T01:51:59;5.20;;;2.20;;
22737;SDS011;11536;50.860;4.286;2023-08-06T01:54:25;8.02;;;1.95;;
22737;SDS011;11536;50.860;4.286;2023-08-06T01:56:52;6.43;;;1.73;;
22737;SDS011;11536;50.860;4.286;2023-08-06T01:59:18;7.20;;;1.50;;
22737;SDS011;11536;50.860;4.286;2023-08-06T02:01:43;6.15;;;1.35;;
22737;SDS011;11536;50.860;4.286;2023-08-06T02:04:10;3.63;;;1.10;;
22737;SDS011;11536;50.860;4.286;2023-08-06T02:06:35;3.38;;;1.10;;
22737;SDS011;11536;50.860;4.286;2023-08-06T02:09:01;2.58;;;0.80;;
22737;SDS011;11536;50.860;4.286;2023-08-06T02:11:27;4.18;;;0.93;;
22737;SDS011;11536;50.860;4.286;2023-08-06T02:13:52;3.80;;;0.73;;
22737;SDS011;11536;50.860;4.286;2023-08-06T02:16:18;5.88;;;0.85;;
22737;SDS011;11536;50.860;4.286;2023-08-06T02:18:43;2.70;;;0.80;;
22737;SDS011;11536;50.860;4.286;2023-08-06T02:21:09;4.38;;;0.80;;
22737;SDS011;11536;50.860;4.286;2023-08-06T02:23:35;3.97;;;0.90;;
22737;SDS011;11536;50.860;4.286;2023-08-06T02:26:01;4.50;;;0.90;;
22737;SDS011;11536;50.860;4.286;2023-08-06T02:28:28;6.70;;;0.70;;
22737;SDS011;11536;50.860;4.286;2023-08-06T02:30:54;2.97;;;0.60;;
22737;SDS011;11536;50.860;4.286;2023-08-06T02:33:20;3.65;;;0.73;;
22737;SDS011;11536;50.860;4.286;2023-08-06T02:35:46;3.03;;;0.65;;
22737;SDS011;11536;50.860;4.286;2023-08-06T02:38:11;2.22;;;0.40;;
22737;SDS011;11536;50.860;4.286;2023-08-06T02:40:42;4.63;;;1.13;;
22737;SDS011;11536;50.860;4.286;2023-08-06T02:43:11;3.08;;;0.50;;
22737;SDS011;11536;50.860;4.286;2023-08-06T02:45:37;2.60;;;0.50;;
22737;SDS011;11536;50.860;4.286;2023-08-06T02:48:03;3.42;;;0.70;;
22737;SDS011;11536;50.860;4.286;2023-08-06T02:50:29;1.73;;;0.43;;
22737;SDS011;11536;50.860;4.286;2023-08-06T02:52:55;3.22;;;0.60;;
22737;SDS011;11536;50.860;4.286;2023-08-06T02:55:20;6.07;;;0.90;;
22737;SDS011;11536;50.860;4.286;2023-08-06T02:57:46;3.97;;;1.05;;
22737;SDS011;11536;50.860;4.286;2023-08-06T03:00:11;3.50;;;1.00;;
22737;SDS011;11536;50.860;4.286;2023-08-06T03:02:37;3.47;;;0.90;;
22737;SDS011;11536;50.860;4.286;2023-08-06T03:05:03;4.35;;;1.02;;
22737;SDS011;11536;50.860;4.286;2023-08-06T03:07:29;5.18;;;1.50;;
22737;SDS011;11536;50.860;4.286;2023-08-06T03:09:55;6.05;;;1.90;;
22737;SDS011;11536;50.860;4.286;2023-08-06T03:12:20;5.85;;;2.38;;
22737;SDS011;11536;50.860;4.286;2023-08-06T03:14:46;8.48;;;3.25;;
22737;SDS011;11536;50.860;4.286;2023-08-06T03:17:12;9.40;;;4.45;;
22737;SDS011;11536;50.860;4.286;2023-08-06T03:19:37;12.35;;;4.43;;
22737;SDS011;11536;50.860;4.286;2023-08-06T03:22:03;9.60;;;4.88;;
22737;SDS011;11536;50.860;4.286;2023-08-06T03:24:29;10.85;;;4.63;;
22737;SDS011;11536;50.860;4.286;2023-08-06T03:26:54;8.43;;;3.80;;
22737;SDS011;11536;50.860;4.286;2023-08-06T03:29:20;7.40;;;3.47;;
22737;SDS011;11536;50.860;4.286;2023-08-06T03:31:47;7.95;;;2.97;;
22737;SDS011;11536;50.860;4.286;2023-08-06T03:34:12;6.18;;;2.05;;
22737;SDS011;11536;50.860;4.286;2023-08-06T03:36:38;4.15;;;1.58;;
22737;SDS011;11536;50.860;4.286;2023-08-06T03:39:04;3.63;;;1.00;;
22737;SDS011;11536;50.860;4.286;2023-08-06T03:41:29;2.75;;;1.05;;
22737;SDS011;11536;50.860;4.286;2023-08-06T03:43:55;1.60;;;0.60;;
22737;SDS011;11536;50.860;4.286;2023-08-06T03:46:21;0.95;;;0.38;;
22737;SDS011;11536;50.860;4.286;2023-08-06T03:48:46;1.60;;;0.30;;
22737;SDS011;11536;50.860;4.286;2023-08-06T03:51:12;1.33;;;0.40;;
22737;SDS011;11536;50.860;4.286;2023-08-06T03:53:38;2.20;;;0.43;;
22737;SDS011;11536;50.860;4.286;2023-08-06T03:56:03;2.97;;;0.60;;
22737;SDS011;11536;50.860;4.286;2023-08-06T03:58:29;4.07;;;0.40;;
22737;SDS011;11536;50.860;4.286;2023-08-06T04:01:01;1.25;;;0.40;;
22737;SDS011;11536;50.860;4.286;2023-08-06T04:03:28;1.88;;;0.40;;
22737;SDS011;11536;50.860;4.286;2023-08-06T04:05:54;2.25;;;0.40;;
22737;SDS011;11536;50.860;4.286;2023-08-06T04:08:19;2.83;;;0.60;;
22737;SDS011;11536;50.860;4.286;2023-08-06T04:10:45;1.77;;;0.40;;
22737;SDS011;11536;50.860;4.286;2023-08-06T04:13:14;2.63;;;0.52;;
22737;SDS011;11536;50.860;4.286;2023-08-06T04:15:40;2.30;;;0.60;;
22737;SDS011;11536;50.860;4.286;2023-08-06T04:18:05;2.88;;;0.70;;
22737;SDS011;11536;50.860;4.286;2023-08-06T04:20:31;1.83;;;0.70;;
22737;SDS011;11536;50.860;4.286;2023-08-06T04:22:57;3.53;;;0.90;;
22737;SDS011;11536;50.860;4.286;2023-08-06T04:25:22;4.65;;;0.85;;
22737;SDS011;11536;50.860;4.286;2023-08-06T04:27:48;3.70;;;1.02;;
22737;SDS011;11536;50.860;4.286;2023-08-06T04:30:14;2.35;;;1.00;;
22737;SDS011;11536;50.860;4.286;2023-08-06T04:32:39;2.55;;;0.68;;
22737;SDS011;11536;50.860;4.286;2023-08-06T04:35:05;2.50;;;0.82;;
22737;SDS011;11536;50.860;4.286;2023-08-06T04:37:32;2.67;;;0.90;;
22737;SDS011;11536;50.860;4.286;2023-08-06T04:39:57;2.60;;;1.15;;
22737;SDS011;11536;50.860;4.286;2023-08-06T04:42:23;3.80;;;1.17;;
22737;SDS011;11536;50.860;4.286;2023-08-06T04:44:49;3.85;;;1.15;;
22737;SDS011;11536;50.860;4.286;2023-08-06T04:47:15;4.03;;;1.35;;
22737;SDS011;11536;50.860;4.286;2023-08-06T04:49:40;3.30;;;1.27;;
22737;SDS011;11536;50.860;4.286;2023-08-06T04:52:06;4.15;;;1.33;;
22737;SDS011;11536;50.860;4.286;2023-08-06T04:54:32;3.55;;;1.13;;
22737;SDS011;11536;50.860;4.286;2023-08-06T04:56:57;4.88;;;1.40;;
22737;SDS011;11536;50.860;4.286;2023-08-06T04:59:23;4.72;;;1.40;;
22737;SDS011;11536;50.860;4.286;2023-08-06T05:01:49;6.13;;;1.30;;
22737;SDS011;11536;50.860;4.286;2023-08-06T05:04:14;6.22;;;1.40;;
22737;SDS011;11536;50.860;4.286;2023-08-06T05:06:40;5.25;;;1.48;;
22737;SDS011;11536;50.860;4.286;2023-08-06T05:09:06;4.75;;;1.50;;
22737;SDS011;11536;50.860;4.286;2023-08-06T05:11:31;5.32;;;1.55;;
22737;SDS011;11536;50.860;4.286;2023-08-06T05:13:57;4.95;;;1.27;;
22737;SDS011;11536;50.860;4.286;2023-08-06T05:16:23;4.38;;;1.50;;
22737;SDS011;11536;50.860;4.286;2023-08-06T05:18:49;5.28;;;1.20;;
22737;SDS011;11536;50.860;4.286;2023-08-06T05:21:14;3.50;;;1.33;;
22737;SDS011;11536;50.860;4.286;2023-08-06T05:23:41;6.60;;;1.77;;
22737;SDS011;11536;50.860;4.286;2023-08-06T05:26:07;4.97;;;1.40;;
22737;SDS011;11536;50.860;4.286;2023-08-06T05:28:33;6.40;;;1.38;;
22737;SDS011;11536;50.860;4.286;2023-08-06T05:31:02;4.00;;;1.15;;
22737;SDS011;11536;50.860;4.286;2023-08-06T05:33:28;7.60;;;1.60;;
22737;SDS011;11536;50.860;4.286;2023-08-06T05:35:54;6.57;;;1.67;;
22737;SDS011;11536;50.860;4.286;2023-08-06T05:38:20;4.85;;;1.70;;
22737;SDS011;11536;50.860;4.286;2023-08-06T05:40:45;5.82;;;1.45;;
22737;SDS011;11536;50.860;4.286;2023-08-06T05:43:11;7.07;;;2.00;;
22737;SDS011;11536;50.860;4.286;2023-08-06T05:45:36;10.38;;;1.95;;
22737;SDS011;11536;50.860;4.286;2023-08-06T05:48:02;7.53;;;1.98;;
22737;SDS011;11536;50.860;4.286;2023-08-06T05:50:28;9.02;;;2.03;;
22737;SDS011;11536;50.860;4.286;2023-08-06T05:52:53;7.70;;;1.60;;
22737;SDS011;11536;50.860;4.286;2023-08-06T05:55:20;12.30;;;3.05;;
22737;SDS011;11536;50.860;4.286;2023-08-06T05:57:45;5.85;;;1.65;;
22737;SDS011;11536;50.860;4.286;2023-08-06T06:00:11;5.88;;;1.58;;
22737;SDS011;11536;50.860;4.286;2023-08-06T06:02:37;6.60;;;1.88;;
22737;SDS011;11536;50.860;4.286;2023-08-06T06:05:02;6.43;;;1.73;;
22737;SDS011;11536;50.860;4.286;2023-08-06T06:07:28;6.57;;;1.70;;
22737;SDS011;11536;50.860;4.286;2023-08-06T06:09:54;4.28;;;1.33;;
22737;SDS011;11536;50.860;4.286;2023-08-06T06:12:19;6.68;;;1.60;;
22737;SDS011;11536;50.860;4.286;2023-08-06T06:14:47;6.43;;;1.30;;
22737;SDS011;11536;50.860;4.286;2023-08-06T06:17:13;6.13;;;1.70;;
22737;SDS011;11536;50.860;4.286;2023-08-06T06:19:38;8.60;;;2.15;;
22737;SDS011;11536;50.860;4.286;2023-08-06T06:22:04;6.95;;;1.35;;
22737;SDS011;11536;50.860;4.286;2023-08-06T06:24:29;6.68;;;1.85;;
22737;SDS011;11536;50.860;4.286;2023-08-06T06:26:55;4.35;;;1.42;;
22737;SDS011;11536;50.860;4.286;2023-08-06T06:29:21;9.73;;;1.52;;
22737;SDS011;11536;50.860;4.286;2023-08-06T06:31:46;7.43;;;1.73;;
22737;SDS011;11536;50.860;4.286;2023-08-06T06:34:12;6.70;;;1.40;;
22737;SDS011;11536;50.860;4.286;2023-08-06T06:36:38;6.45;;;1.90;;
22737;SDS011;11536;50.860;4.286;2023-08-06T06:39:04;6.18;;;1.63;;
22737;SDS011;11536;50.860;4.286;2023-08-06T06:41:30;8.68;;;1.40;;
22737;SDS011;11536;50.860;4.286;2023-08-06T06:43:57;4.28;;;1.38;;
22737;SDS011;11536;50.860;4.286;2023-08-06T06:46:23;6.28;;;1.75;;
22737;SDS011;11536;50.860;4.286;2023-08-06T06:48:49;6.32;;;1.70;;
22737;SDS011;11536;50.860;4.286;2023-08-06T06:51:14;4.68;;;1.45;;
22737;SDS011;11536;50.860;4.286;2023-08-06T06:53:40;5.60;;;1.80;;
22737;SDS011;11536;50.860;4.286;2023-08-06T06:56:05;6.15;;;1.42;;
22737;SDS011;11536;50.860;4.286;2023-08-06T06:58:31;4.90;;;0.75;;
22737;SDS011;11536;50.860;4.286;2023-08-06T07:00:57;9.00;;;1.05;;
22737;SDS011;11536;50.860;4.286;2023-08-06T07:03:23;4.88;;;0.80;;
22737;SDS011;11536;50.860;4.286;2023-08-06T07:05:49;3.63;;;0.55;;
22737;SDS011;11536;50.860;4.286;2023-08-06T07:08:15;6.13;;;0.90;;
22737;SDS011;11536;50.860;4.286;2023-08-06T07:10:41;5.78;;;0.73;;
22737;SDS011;11536;50.860;4.286;2023-08-06T07:13:08;3.13;;;0.70;;
22737;SDS011;11536;50.860;4.286;2023-08-06T07:15:33;4.65;;;0.60;;
22737;SDS011;11536;50.860;4.286;2023-08-06T07:17:59;4.43;;;0.80;;
22737;SDS011;11536;50.860;4.286;2023-08-06T07:20:25;4.28;;;0.63;;
22737;SDS011;11536;50.860;4.286;2023-08-06T07:22:50;5.28;;;0.70;;
22737;SDS011;11536;50.860;4.286;2023-08-06T07:25:16;4.50;;;0.63;;
22737;SDS011;11536;50.860;4.286;2023-08-06T07:27:42;4.95;;;0.60;;
22737;SDS011;11536;50.860;4.286;2023-08-06T07:30:08;4.72;;;0.85;;
22737;SDS011;11536;50.860;4.286;2023-08-06T07:32:33;3.40;;;0.60;;
22737;SDS011;11536;50.860;4.286;2023-08-06T07:34:59;2.33;;;0.55;;
22737;SDS011;11536;50.860;4.286;2023-08-06T07:37:28;3.58;;;0.50;;
22737;SDS011;11536;50.860;4.286;2023-08-06T07:39:55;3.55;;;0.30;;
22737;SDS011;11536;50.860;4.286;2023-08-06T07:42:21;6.03;;;0.68;;
22737;SDS011;11536;50.860;4.286;2023-08-06T07:44:52;7.63;;;0.68;;
22737;SDS011;11536;50.860;4.286;2023-08-06T07:47:19;3.35;;;0.60;;
22737;SDS011;11536;50.860;4.286;2023-08-06T07:49:45;6.68;;;0.80;;
22737;SDS011;11536;50.860;4.286;2023-08-06T07:52:11;3.97;;;0.70;;
22737;SDS011;11536;50.860;4.286;2023-08-06T07:54:36;4.78;;;0.70;;
22737;SDS011;11536;50.860;4.286;2023-08-06T07:57:02;7.45;;;0.77;;
22737;SDS011;11536;50.860;4.286;2023-08-06T07:59:28;3.22;;;0.57;;
22737;SDS011;11536;50.860;4.286;2023-08-06T08:01:54;7.63;;;1.10;;
22737;SDS011;11536;50.860;4.286;2023-08-06T08:04:19;3.33;;;0.60;;
22737;SDS011;11536;50.860;4.286;2023-08-06T08:06:46;4.60;;;0.80;;
22737;SDS011;11536;50.860;4.286;2023-08-06T08:09:12;5.28;;;0.95;;
22737;SDS011;11536;50.860;4.286;2023-08-06T08:11:39;6.88;;;0.88;;
22737;SDS011;11536;50.860;4.286;2023-08-06T08:14:05;3.72;;;0.77;;
22737;SDS011;11536;50.860;4.286;2023-08-06T08:16:30;9.80;;;1.48;;
22737;SDS011;11536;50.860;4.286;2023-08-06T08:18:56;4.10;;;0.80;;
22737;SDS011;11536;50.860;4.286;2023-08-06T08:21:22;4.25;;;1.13;;
22737;SDS011;11536;50.860;4.286;2023-08-06T08:23:49;9.27;;;0.88;;
22737;SDS011;11536;50.860;4.286;2023-08-06T08:26:15;5.35;;;0.90;;
22737;SDS011;11536;50.860;4.286;2023-08-06T08:28:41;3.67;;;0.73;;
22737;SDS011;11536;50.860;4.286;2023-08-06T08:31:10;4.22;;;0.57;;
22737;SDS011;11536;50.860;4.286;2023-08-06T08:33:36;4.97;;;0.88;;
22737;SDS011;11536;50.860;4.286;2023-08-06T08:36:05;5.93;;;0.70;;
22737;SDS011;11536;50.860;4.286;2023-08-06T08:38:30;5.70;;;0.75;;
22737;SDS011;11536;50.860;4.286;2023-08-06T08:40:56;4.80;;;0.80;;
22737;SDS011;11536;50.860;4.286;2023-08-06T08:43:22;6.70;;;0.90;;
22737;SDS011;11536;50.860;4.286;2023-08-06T08:45:52;5.30;;;1.15;;
22737;SDS011;11536;50.860;4.286;2023-08-06T08:48:21;4.20;;;0.73;;
22737;SDS011;11536;50.860;4.286;2023-08-06T08:50:48;7.78;;;1.10;;
22737;SDS011;11536;50.860;4.286;2023-08-06T08:53:15;5.30;;;0.73;;
22737;SDS011;11536;50.860;4.286;2023-08-06T08:55:42;5.40;;;0.70;;
22737;SDS011;11536;50.860;4.286;2023-08-06T08:58:09;4.82;;;0.70;;
22737;SDS011;11536;50.860;4.286;2023-08-06T09:00:35;4.30;;;0.80;;
22737;SDS011;11536;50.860;4.286;2023-08-06T09:03:02;6.07;;;0.70;;
22737;SDS011;11536;50.860;4.286;2023-08-06T09:05:31;6.15;;;1.05;;
22737;SDS011;11536;50.860;4.286;2023-08-06T09:08:04;5.78;;;0.70;;
22737;SDS011;11536;50.860;4.286;2023-08-06T09:10:30;6.97;;;1.00;;
22737;SDS011;11536;50.860;4.286;2023-08-06T09:12:56;5.00;;;0.80;;
22737;SDS011;11536;50.860;4.286;2023-08-06T09:15:26;6.05;;;0.80;;
22737;SDS011;11536;50.860;4.286;2023-08-06T09:17:52;5.43;;;1.23;;
22737;SDS011;11536;50.860;4.286;2023-08-06T09:20:19;4.28;;;0.73;;
22737;SDS011;11536;50.860;4.286;2023-08-06T09:22:45;4.05;;;0.90;;
22737;SDS011;11536;50.860;4.286;2023-08-06T09:25:13;7.80;;;0.95;;
22737;SDS011;11536;50.860;4.286;2023-08-06T09:27:50;6.03;;;0.82;;
22737;SDS011;11536;50.860;4.286;2023-08-06T09:30:33;4.93;;;0.95;;
22737;SDS011;11536;50.860;4.286;2023-08-06T09:33:00;6.95;;;1.05;;
22737;SDS011;11536;50.860;4.286;2023-08-06T09:35:30;6.90;;;0.80;;
22737;SDS011;11536;50.860;4.286;2023-08-06T09:38:04;6.25;;;0.88;;
22737;SDS011;11536;50.860;4.286;2023-08-06T09:40:35;8.25;;;1.20;;
22737;SDS011;11536;50.860;4.286;2023-08-06T09:43:01;7.68;;;0.90;;
22737;SDS011;11536;50.860;4.286;2023-08-06T09:45:36;6.25;;;0.90;;
22737;SDS011;11536;50.860;4.286;2023-08-06T09:48:03;6.30;;;1.05;;
22737;SDS011;11536;50.860;4.286;2023-08-06T09:50:30;3.10;;;0.95;;
22737;SDS011;11536;50.860;4.286;2023-08-06T09:52:57;6.63;;;1.23;;
22737;SDS011;11536;50.860;4.286;2023-08-06T09:55:24;7.03;;;1.30;;
22737;SDS011;11536;50.860;4.286;2023-08-06T09:57:51;4.35;;;0.80;;
22737;SDS011;11536;50.860;4.286;2023-08-06T10:00:17;7.38;;;1.15;;
22737;SDS011;11536;50.860;4.286;2023-08-06T10:02:43;6.70;;;1.00;;
22737;SDS011;11536;50.860;4.286;2023-08-06T10:05:10;6.15;;;1.05;;
22737;SDS011;11536;50.860;4.286;2023-08-06T10:07:36;6.25;;;0.80;;
22737;SDS011;11536;50.860;4.286;2023-08-06T10:10:04;6.72;;;1.00;;
22737;SDS011;11536;50.860;4.286;2023-08-06T10:12:32;4.63;;;1.00;;
22737;SDS011;11536;50.860;4.286;2023-08-06T10:15:13;3.17;;;0.60;;
22737;SDS011;11536;50.860;4.286;2023-08-06T10:17:42;4.25;;;0.70;;
22737;SDS011;11536;50.860;4.286;2023-08-06T10:20:11;3.28;;;0.52;;
22737;SDS011;11536;50.860;4.286;2023-08-06T10:22:37;6.18;;;0.77;;
22737;SDS011;11536;50.860;4.286;2023-08-06T10:25:08;2.53;;;0.60;;
22737;SDS011;11536;50.860;4.286;2023-08-06T10:27:35;3.67;;;0.80;;
22737;SDS011;11536;50.860;4.286;2023-08-06T10:32:53;4.93;;;0.50;;
22737;SDS011;11536;50.860;4.286;2023-08-06T10:35:28;5.35;;;0.85;;
22737;SDS011;11536;50.860;4.286;2023-08-06T10:38:18;4.85;;;1.08;;
22737;SDS011;11536;50.860;4.286;2023-08-06T10:40:52;3.78;;;0.70;;
22737;SDS011;11536;50.860;4.286;2023-08-06T10:45:52;3.35;;;0.60;;
22737;SDS011;11536;50.860;4.286;2023-08-06T10:48:34;4.55;;;0.80;;
22737;SDS011;11536;50.860;4.286;2023-08-06T10:51:01;4.93;;;0.85;;
22737;SDS011;11536;50.860;4.286;2023-08-06T10:53:28;6.70;;;1.00;;
22737;SDS011;11536;50.860;4.286;2023-08-06T10:55:53;5.95;;;0.80;;
22737;SDS011;11536;50.860;4.286;2023-08-06T10:58:19;8.52;;;1.38;;
22737;SDS011;11536;50.860;4.286;2023-08-06T11:00:45;9.10;;;1.17;;
22737;SDS011;11536;50.860;4.286;2023-08-06T11:03:11;5.18;;;0.70;;
22737;SDS011;11536;50.860;4.286;2023-08-06T11:05:37;3.15;;;0.70;;
22737;SDS011;11536;50.860;4.286;2023-08-06T11:08:02;6.65;;;1.33;;
22737;SDS011;11536;50.860;4.286;2023-08-06T11:10:28;4.15;;;0.90;;
22737;SDS011;11536;50.860;4.286;2023-08-06T11:12:54;5.25;;;1.00;;
22737;SDS011;11536;50.860;4.286;2023-08-06T11:15:20;8.00;;;1.15;;
22737;SDS011;11536;50.860;4.286;2023-08-06T11:17:46;6.18;;;1.02;;
22737;SDS011;11536;50.860;4.286;2023-08-06T11:20:12;4.00;;;1.08;;
22737;SDS011;11536;50.860;4.286;2023-08-06T11:22:38;2.95;;;0.70;;
22737;SDS011;11536;50.860;4.286;2023-08-06T11:25:07;3.97;;;0.68;;
22737;SDS011;11536;50.860;4.286;2023-08-06T11:27:32;6.78;;;0.98;;
22737;SDS011;11536;50.860;4.286;2023-08-06T11:29:58;2.83;;;0.63;;
22737;SDS011;11536;50.860;4.286;2023-08-06T11:32:24;3.15;;;0.73;;
22737;SDS011;11536;50.860;4.286;2023-08-06T11:34:50;5.78;;;1.30;;
22737;SDS011;11536;50.860;4.286;2023-08-06T11:37:20;4.03;;;0.60;;
22737;SDS011;11536;50.860;4.286;2023-08-06T11:39:48;2.75;;;0.50;;
22737;SDS011;11536;50.860;4.286;2023-08-06T11:42:14;2.75;;;0.50;;
22737;SDS011;11536;50.860;4.286;2023-08-06T11:44:40;4.30;;;0.70;;
22737;SDS011;11536;50.860;4.286;2023-08-06T11:47:11;4.07;;;0.70;;
22737;SDS011;11536;50.860;4.286;2023-08-06T11:49:42;3.20;;;0.57;;
22737;SDS011;11536;50.860;4.286;2023-08-06T11:52:20;3.63;;;0.73;;
22737;SDS011;11536;50.860;4.286;2023-08-06T11:54:59;3.47;;;0.75;;
22737;SDS011;11536;50.860;4.286;2023-08-06T11:57:33;4.25;;;0.52;;
22737;SDS011;11536;50.860;4.286;2023-08-06T12:00:06;4.25;;;0.70;;
22737;SDS011;11536;50.860;4.286;2023-08-06T12:02:36;5.47;;;0.85;;
22737;SDS011;11536;50.860;4.286;2023-08-06T12:07:37;5.65;;;0.88;;
22737;SDS011;11536;50.860;4.286;2023-08-06T12:10:04;7.72;;;0.90;;
22737;SDS011;11536;50.860;4.286;2023-08-06T12:12:30;6.78;;;0.85;;
22737;SDS011;11536;50.860;4.286;2023-08-06T12:14:56;7.75;;;0.90;;
22737;SDS011;11536;50.860;4.286;2023-08-06T12:17:25;6.95;;;0.88;;
22737;SDS011;11536;50.860;4.286;2023-08-06T12:19:51;5.40;;;0.70;;
22737;SDS011;11536;50.860;4.286;2023-08-06T12:22:17;4.20;;;0.90;;
22737;SDS011;11536;50.860;4.286;2023-08-06T12:24:43;5.97;;;0.93;;
22737;SDS011;11536;50.860;4.286;2023-08-06T12:27:10;3.92;;;0.68;;
22737;SDS011;11536;50.860;4.286;2023-08-06T12:29:46;4.45;;;0.80;;
22737;SDS011;11536;50.860;4.286;2023-08-06T12:32:13;5.30;;;0.80;;
22737;SDS011;11536;50.860;4.286;2023-08-06T12:34:40;3.53;;;0.80;;
22737;SDS011;11536;50.860;4.286;2023-08-06T12:37:07;5.88;;;0.73;;
22737;SDS011;11536;50.860;4.286;2023-08-06T12:39:33;7.88;;;1.48;;
22737;SDS011;11536;50.860;4.286;2023-08-06T12:42:03;4.40;;;1.20;;
22737;SDS011;11536;50.860;4.286;2023-08-06T12:44:30;4.68;;;0.77;;
22737;SDS011;11536;50.860;4.286;2023-08-06T12:46:56;4.22;;;0.70;;
22737;SDS011;11536;50.860;4.286;2023-08-06T12:49:22;8.35;;;0.85;;
22737;SDS011;11536;50.860;4.286;2023-08-06T12:51:48;4.30;;;0.63;;
22737;SDS011;11536;50.860;4.286;2023-08-06T12:54:17;2.25;;;0.50;;
22737;SDS011;11536;50.860;4.286;2023-08-06T12:56:44;5.22;;;0.60;;
22737;SDS011;11536;50.860;4.286;2023-08-06T12:59:10;5.95;;;0.68;;
22737;SDS011;11536;50.860;4.286;2023-08-06T13:01:39;3.88;;;0.75;;
22737;SDS011;11536;50.860;4.286;2023-08-06T13:04:05;3.45;;;0.90;;
22737;SDS011;11536;50.860;4.286;2023-08-06T13:06:31;6.47;;;0.70;;
22737;SDS011;11536;50.860;4.286;2023-08-06T13:09:01;4.70;;;0.80;;
22737;SDS011;11536;50.860;4.286;2023-08-06T13:11:30;5.55;;;0.88;;
22737;SDS011;11536;50.860;4.286;2023-08-06T13:13:59;2.35;;;0.60;;
22737;SDS011;11536;50.860;4.286;2023-08-06T13:16:35;5.32;;;0.70;;
22737;SDS011;11536;50.860;4.286;2023-08-06T13:19:02;5.10;;;1.65;;
22737;SDS011;11536;50.860;4.286;2023-08-06T13:21:32;2.92;;;0.60;;
22737;SDS011;11536;50.860;4.286;2023-08-06T13:23:59;5.35;;;0.65;;
22737;SDS011;11536;50.860;4.286;2023-08-06T13:26:26;5.88;;;0.70;;
22737;SDS011;11536;50.860;4.286;2023-08-06T13:28:52;6.07;;;0.77;;
22737;SDS011;11536;50.860;4.286;2023-08-06T13:31:18;6.05;;;0.90;;
22737;SDS011;11536;50.860;4.286;2023-08-06T13:33:44;5.32;;;0.85;;
22737;SDS011;11536;50.860;4.286;2023-08-06T13:36:09;4.47;;;1.10;;
22737;SDS011;11536;50.860;4.286;2023-08-06T13:38:35;4.57;;;0.88;;
22737;SDS011;11536;50.860;4.286;2023-08-06T13:41:01;5.00;;;1.10;;
22737;SDS011;11536;50.860;4.286;2023-08-06T13:43:27;4.97;;;0.88;;
22737;SDS011;11536;50.860;4.286;2023-08-06T13:45:53;5.45;;;0.80;;
22737;SDS011;11536;50.860;4.286;2023-08-06T13:48:18;5.07;;;0.77;;
22737;SDS011;11536;50.860;4.286;2023-08-06T13:50:44;6.22;;;0.95;;
22737;SDS011;11536;50.860;4.286;2023-08-06T13:53:10;5.97;;;0.60;;
22737;SDS011;11536;50.860;4.286;2023-08-06T13:55:35;2.67;;;0.63;;
22737;SDS011;11536;50.860;4.286;2023-08-06T13:58:01;8.88;;;0.85;;
22737;SDS011;11536;50.860;4.286;2023-08-06T14:00:27;6.13;;;0.80;;
22737;SDS011;11536;50.860;4.286;2023-08-06T14:02:53;3.65;;;0.47;;
22737;SDS011;11536;50.860;4.286;2023-08-06T14:05:18;3.63;;;0.32;;
22737;SDS011;11536;50.860;4.286;2023-08-06T14:07:44;4.30;;;0.52;;
22737;SDS011;11536;50.860;4.286;2023-08-06T14:10:10;6.72;;;0.70;;
22737;SDS011;11536;50.860;4.286;2023-08-06T14:12:35;3.17;;;0.50;;
22737;SDS011;11536;50.860;4.286;2023-08-06T14:15:01;5.07;;;0.60;;
22737;SDS011;11536;50.860;4.286;2023-08-06T14:17:28;5.70;;;0.68;;
22737;SDS011;11536;50.860;4.286;2023-08-06T14:19:54;5.25;;;0.77;;
22737;SDS011;11536;50.860;4.286;2023-08-06T14:22:21;9.52;;;1.13;;
22737;SDS011;11536;50.860;4.286;2023-08-06T14:24:47;3.67;;;0.45;;
22737;SDS011;11536;50.860;4.286;2023-08-06T14:27:13;4.60;;;0.60;;
22737;SDS011;11536;50.860;4.286;2023-08-06T14:29:38;4.40;;;0.77;;
22737;SDS011;11536;50.860;4.286;2023-08-06T14:32:04;5.10;;;0.63;;
22737;SDS011;11536;50.860;4.286;2023-08-06T14:34:30;5.22;;;0.63;;
22737;SDS011;11536;50.860;4.286;2023-08-06T14:36:55;4.68;;;0.60;;
22737;SDS011;11536;50.860;4.286;2023-08-06T14:39:21;5.22;;;1.00;;
22737;SDS011;11536;50.860;4.286;2023-08-06T14:41:47;5.95;;;1.00;;
22737;SDS011;11536;50.860;4.286;2023-08-06T14:44:13;5.40;;;0.73;;
22737;SDS011;11536;50.860;4.286;2023-08-06T14:46:38;4.82;;;0.77;;
22737;SDS011;11536;50.860;4.286;2023-08-06T14:49:04;4.80;;;0.85;;
22737;SDS011;11536;50.860;4.286;2023-08-06T14:51:30;4.80;;;1.15;;
22737;SDS011;11536;50.860;4.286;2023-08-06T14:53:56;7.90;;;1.10;;
22737;SDS011;11536;50.860;4.286;2023-08-06T14:56:21;3.75;;;0.80;;